Time;durP1;ratioP1;P1;durP2;ratioP2;P2;SDS_P1;SDS_P2;PMS_P1;PMS_P2;Temp;Humidity;BMP_temperature;BMP_pressure;BME280_temperature;BME280_humidity;BME280_pressure;Samples;Min_cycle;Max_cycle;Signal;HPM_P1;HPM_P2
2020/12/24 00:00:57;;;;;;;50.08;29.87;;;;;;;9.87;80.60;99307.66;2217297;80;31149;-67
2020/12/24 00:03:59;;;;;;;48.98;30.37;;;;;;;9.91;80.66;99312.81;2213712;80;33057;-67
2020/12/24 00:07:02;;;;;;;52.10;31.27;;;;;;;9.93;80.61;99310.41;2179625;79;30420;-67
2020/12/24 00:10:08;;;;;;;49.30;27.87;;;;;;;9.96;80.56;99313.36;2178217;81;27591;-67
2020/12/24 00:13:23;;;;;;;48.45;29.72;;;;;;;9.97;80.61;99319.09;2178944;81;28810;-67
2020/12/24 00:16:25;;;;;;;50.98;30.72;;;;;;;10.01;80.62;99331.33;2214812;80;31099;-66
2020/12/24 00:19:28;;;;;;;58.13;34.90;;;;;;;10.02;80.53;99311.64;2217558;80;33961;-67
2020/12/24 00:22:30;;;;;;;45.55;27.67;;;;;;;10.08;80.58;99319.30;2217556;80;29209;-67
2020/12/24 00:25:32;;;;;;;40.75;25.15;;;;;;;10.13;80.62;99326.53;2215164;80;27751;-68
2020/12/24 00:28:35;;;;;;;43.05;26.55;;;;;;;10.17;80.60;99317.36;2179012;80;28881;-67
2020/12/24 00:31:38;;;;;;;44.60;23.55;;;;;;;10.22;80.65;99314.37;2178874;80;31154;-66
2020/12/24 00:34:41;;;;;;;41.60;24.37;;;;;;;10.26;80.57;99322.60;2157191;80;33932;-67
2020/12/24 00:37:44;;;;;;;34.27;22.42;;;;;;;10.28;80.53;99314.46;2217548;80;29164;-66
2020/12/24 00:40:46;;;;;;;36.63;21.42;;;;;;;10.31;80.48;99316.48;2217611;80;27641;-66
2020/12/24 00:43:48;;;;;;;34.63;21.20;;;;;;;10.36;80.44;99311.28;2219233;80;28872;-67
2020/12/24 00:46:52;;;;;;;39.13;23.60;;;;;;;10.39;80.31;99305.77;2221900;80;32128;-67
2020/12/24 00:49:54;;;;;;;34.92;20.88;;;;;;;10.40;80.27;99297.66;2182814;81;33575;-67
2020/12/24 00:52:57;;;;;;;32.85;19.77;;;;;;;10.41;80.19;99294.02;2183416;81;30017;-67
2020/12/24 00:55:59;;;;;;;37.35;20.43;;;;;;;10.38;80.06;99287.95;2167432;80;27673;-67
2020/12/24 00:59:01;;;;;;;27.70;17.05;;;;;;;10.35;80.11;99285.01;2161215;81;28817;-67
2020/12/24 01:02:04;;;;;;;24.57;15.72;;;;;;;10.37;80.16;99291.13;2161143;81;31297;-66
2020/12/24 01:05:07;;;;;;;26.77;15.45;;;;;;;10.40;80.07;99311.50;2163246;80;33172;-67
2020/12/24 01:08:09;;;;;;;24.18;15.30;;;;;;;10.41;80.01;99303.86;2193181;80;30172;-67
2020/12/24 01:11:12;;;;;;;23.20;15.08;;;;;;;10.42;80.04;99307.80;2199376;80;27882;-67
2020/12/24 01:14:14;;;;;;;25.62;15.53;;;;;;;10.41;80.08;99301.18;2192849;80;28829;-67
2020/12/24 01:17:16;;;;;;;26.55;15.35;;;;;;;10.40;80.10;99290.97;2171468;78;31124;-63
2020/12/24 01:20:19;;;;;;;33.63;19.10;;;;;;;10.40;80.29;99292.30;2176816;81;33170;-63
2020/12/24 01:23:21;;;;;;;31.80;18.32;;;;;;;10.40;80.22;99296.31;2176831;81;29247;-62
2020/12/24 01:26:24;;;;;;;30.25;16.67;;;;;;;10.43;80.26;99296.09;2173485;81;27581;-64
2020/12/24 01:29:26;;;;;;;22.62;12.88;;;;;;;10.46;80.23;99295.05;2173336;81;28820;-65
2020/12/24 01:32:28;;;;;;;21.80;10.38;;;;;;;10.51;80.27;99308.13;2176716;81;31210;-65
2020/12/24 01:35:30;;;;;;;22.35;10.60;;;;;;;10.52;80.31;99305.84;2176680;81;33997;-64
2020/12/24 01:38:33;;;;;;;19.52;10.23;;;;;;;10.54;80.37;99301.25;2183372;81;30099;-64
2020/12/24 01:41:35;;;;;;;17.15;10.05;;;;;;;10.58;80.43;99301.43;2159744;82;27660;-64
2020/12/24 01:44:37;;;;;;;10.03;5.70;;;;;;;10.62;80.49;99302.92;2159572;82;28811;-64
2020/12/24 01:47:39;;;;;;;11.65;8.13;;;;;;;10.65;80.39;99304.06;2176574;81;32093;-64
2020/12/24 01:50:42;;;;;;;8.93;6.20;;;;;;;10.67;80.45;99300.80;2176707;80;33179;-63
2020/12/24 01:53:44;;;;;;;9.15;6.45;;;;;;;10.73;80.49;99295.05;2176726;81;29164;-64
2020/12/24 01:56:47;;;;;;;7.90;5.50;;;;;;;10.78;80.46;99293.40;2121723;81;27721;-64
2020/12/24 01:59:49;;;;;;;7.85;4.72;;;;;;;10.81;80.43;99300.36;2138806;83;28818;-64
2020/12/24 02:02:51;;;;;;;8.08;5.58;;;;;;;10.85;80.38;99290.67;2116330;84;32107;-64
2020/12/24 02:05:57;;;;;;;10.60;7.53;;;;;;;10.86;80.31;99292.89;2144283;82;33120;-64
2020/12/24 02:08:59;;;;;;;8.43;5.40;;;;;;;10.86;80.31;99289.71;2156975;82;29142;-64
2020/12/24 02:12:03;;;;;;;6.65;4.03;;;;;;;10.89;80.34;99288.66;2157101;82;27714;-64
2020/12/24 02:15:05;;;;;;;6.08;3.77;;;;;;;10.91;80.32;99282.23;2156926;82;28841;-63
2020/12/24 02:18:08;;;;;;;7.62;3.27;;;;;;;10.97;80.33;99282.79;2154240;81;31250;-64
2020/12/24 02:21:10;;;;;;;6.03;2.87;;;;;;;11.02;80.33;99284.66;2179243;81;33137;-65
2020/12/24 02:24:13;;;;;;;4.10;2.60;;;;;;;11.04;80.21;99282.73;2171942;81;29209;-64
2020/12/24 02:27:15;;;;;;;3.58;2.50;;;;;;;11.07;80.16;99283.41;2172224;81;27722;-65
2020/12/24 02:30:17;;;;;;;3.75;2.62;;;;;;;11.09;80.05;99281.95;2172029;81;29832;-65
2020/12/24 02:33:19;;;;;;;6.83;2.50;;;;;;;11.07;79.96;99279.38;2132519;81;31116;-65
2020/12/24 02:36:22;;;;;;;4.92;2.75;;;;;;;11.07;79.87;99263.77;2127665;83;32267;-65
2020/12/24 02:39:24;;;;;;;4.55;2.98;;;;;;;11.04;79.64;99262.63;2127776;81;29596;-64
2020/12/24 02:42:26;;;;;;;4.40;2.65;;;;;;;10.98;79.51;99263.91;2171837;81;27651;-63
2020/12/24 02:45:28;;;;;;;5.05;2.92;;;;;;;10.98;79.58;99271.11;2172000;81;28808;-64
2020/12/24 02:48:31;;;;;;;3.47;2.60;;;;;;;10.96;79.56;99268.52;2172003;81;31345;-66
2020/12/24 02:51:33;;;;;;;8.28;3.55;;;;;;;10.96;79.57;99269.85;2171831;80;33404;-65
2020/12/24 02:54:35;;;;;;;4.28;2.52;;;;;;;10.96;79.62;99266.33;2172019;81;29200;-65
2020/12/24 02:57:39;;;;;;;4.70;2.40;;;;;;;10.98;79.52;99265.75;2172265;81;27647;-65
2020/12/24 03:00:41;;;;;;;3.52;2.17;;;;;;;10.96;79.58;99256.45;2172071;81;28841;-66
2020/12/24 03:03:43;;;;;;;3.72;2.20;;;;;;;10.97;79.56;99259.52;2171969;80;32490;-64
2020/12/24 03:06:46;;;;;;;5.10;2.45;;;;;;;10.99;79.45;99262.95;2171967;81;33086;-65
2020/12/24 03:09:48;;;;;;;7.12;3.17;;;;;;;11.01;79.38;99261.49;2171902;81;29192;-65
2020/12/24 03:12:50;;;;;;;5.83;2.70;;;;;;;11.02;79.38;99253.37;2172108;81;28128;-64
2020/12/24 03:15:52;;;;;;;7.67;2.92;;;;;;;11.05;79.41;99254.50;2171951;81;29770;-65
2020/12/24 03:18:55;;;;;;;4.67;2.42;;;;;;;11.07;79.37;99265.11;2179580;81;31212;-65
2020/12/24 03:21:58;;;;;;;6.35;2.62;;;;;;;11.06;79.27;99264.27;2192767;81;33215;-64
2020/12/24 03:25:01;;;;;;;3.12;2.27;;;;;;;11.08;79.26;99269.50;2192407;81;29164;-65
2020/12/24 03:28:03;;;;;;;5.35;2.87;;;;;;;11.10;79.27;99276.47;2192807;81;27784;-65
2020/12/24 03:31:05;;;;;;;4.97;2.45;;;;;;;11.13;79.17;99271.86;2192405;81;29043;-64
2020/12/24 03:34:07;;;;;;;5.00;2.50;;;;;;;11.17;79.13;99270.69;2192628;81;31198;-64
2020/12/24 03:37:09;;;;;;;3.67;2.12;;;;;;;11.21;79.07;99274.39;2192277;81;33100;-64
2020/12/24 03:40:11;;;;;;;6.35;2.10;;;;;;;11.25;79.04;99276.41;2192653;81;29171;-64
2020/12/24 03:43:14;;;;;;;4.97;2.05;;;;;;;11.29;79.00;99279.72;2192557;81;27712;-64
2020/12/24 03:46:16;;;;;;;2.60;1.60;;;;;;;11.32;79.01;99272.31;2192812;81;29017;-64
2020/12/24 03:49:18;;;;;;;5.25;2.10;;;;;;;11.35;78.98;99277.47;2192321;80;30537;-64
2020/12/24 03:52:20;;;;;;;5.33;2.42;;;;;;;11.36;78.79;99268.92;2192619;81;32859;-65
2020/12/24 03:55:23;;;;;;;3.62;2.20;;;;;;;11.36;78.78;99270.27;2192379;81;29208;-64
2020/12/24 03:58:25;;;;;;;4.55;1.90;;;;;;;11.37;78.53;99265.28;2192784;81;27700;-64
2020/12/24 04:01:27;;;;;;;5.87;2.02;;;;;;;11.39;78.39;99264.70;2192371;81;28807;-64
2020/12/24 04:04:29;;;;;;;4.22;1.72;;;;;;;11.38;78.30;99262.52;2192589;81;31410;-65
2020/12/24 04:07:31;;;;;;;4.00;1.70;;;;;;;11.40;78.37;99255.69;2192337;80;32581;-65
2020/12/24 04:10:34;;;;;;;4.20;1.80;;;;;;;11.38;78.10;99250.91;2192742;81;29233;-65
2020/12/24 04:13:36;;;;;;;4.78;1.95;;;;;;;11.37;77.99;99250.53;2192349;81;27690;-65
2020/12/24 04:16:38;;;;;;;2.02;1.67;;;;;;;11.33;77.78;99252.58;2192629;81;28876;-64
2020/12/24 04:19:41;;;;;;;4.42;1.55;;;;;;;11.30;77.76;99236.70;2181906;81;32123;-64
2020/12/24 04:22:43;;;;;;;3.50;1.55;;;;;;;11.26;77.70;99240.55;2179176;81;33107;-65
2020/12/24 04:25:46;;;;;;;3.33;1.30;;;;;;;11.23;77.63;99247.50;2171857;80;29996;-64
2020/12/24 04:28:51;;;;;;;3.50;1.50;;;;;;;11.21;77.60;99262.33;2172129;80;27694;-64
2020/12/24 04:31:56;;;;;;;2.90;1.32;;;;;;;11.21;77.61;99267.69;2172086;81;28828;-65
2020/12/24 04:34:58;;;;;;;2.60;1.47;;;;;;;11.20;77.59;99252.56;2171966;82;32143;-65
2020/12/24 04:38:00;;;;;;;3.25;1.80;;;;;;;11.20;77.54;99249.05;2171893;82;33101;-65
2020/12/24 04:41:02;;;;;;;4.30;2.20;;;;;;;11.21;77.46;99255.63;2179309;81;29221;-65
2020/12/24 04:44:05;;;;;;;5.03;2.00;;;;;;;11.20;77.43;99251.72;2172020;82;27728;-65
2020/12/24 04:47:08;;;;;;;3.72;1.50;;;;;;;11.17;77.37;99252.77;2172029;80;28162;-65
2020/12/24 04:50:12;;;;;;;3.47;1.77;;;;;;;11.15;77.10;99256.07;2149833;81;32146;-65
2020/12/24 04:53:15;;;;;;;7.20;2.25;;;;;;;11.08;76.92;99248.94;2172183;81;33091;-65
2020/12/24 04:56:17;;;;;;;6.08;1.90;;;;;;;11.05;76.90;99246.46;2179514;81;29242;-65
2020/12/24 04:59:19;;;;;;;4.20;2.20;;;;;;;11.02;76.80;99240.43;2172214;81;27694;-65
2020/12/24 05:02:21;;;;;;;4.65;1.80;;;;;;;10.98;76.76;99245.16;2172124;81;28813;-65
2020/12/24 05:05:24;;;;;;;3.95;1.60;;;;;;;10.96;76.76;99255.61;2172099;80;31124;-65
2020/12/24 05:08:26;;;;;;;5.67;1.90;;;;;;;10.91;76.68;99245.22;2172100;81;33317;-64
2020/12/24 05:11:32;;;;;;;3.22;1.60;;;;;;;10.85;76.65;99249.64;2179592;81;28943;-65
2020/12/24 05:14:34;;;;;;;2.45;1.67;;;;;;;10.81;76.65;99248.13;2172290;81;27666;-65
2020/12/24 05:17:36;;;;;;;4.83;1.80;;;;;;;10.75;76.65;99241.36;2179549;81;28020;-65
2020/12/24 05:20:40;;;;;;;3.83;1.60;;;;;;;10.70;76.61;99240.34;2186783;81;32022;-65
2020/12/24 05:23:42;;;;;;;3.47;2.05;;;;;;;10.68;76.62;99237.36;2192823;81;33159;-65
2020/12/24 05:26:44;;;;;;;3.72;2.20;;;;;;;10.66;76.64;99240.66;2192418;81;30137;-65
2020/12/24 05:29:50;;;;;;;10.05;4.10;;;;;;;10.66;76.61;99238.82;2193030;81;27621;-65
2020/12/24 05:32:52;;;;;;;31.55;10.70;;;;;;;10.66;76.62;99234.80;2192425;81;28788;-65
2020/12/24 05:36:16;;;;;;;38.28;13.10;;;;;;;10.67;76.61;99247.73;2147542;82;31135;-65
2020/12/24 05:39:23;;;;;;;20.57;7.72;;;;;;;10.65;76.63;99245.14;2192765;81;34045;-65
2020/12/24 05:42:26;;;;;;;21.97;8.18;;;;;;;10.64;76.66;99250.99;2165385;81;29164;-64
2020/12/24 05:45:31;;;;;;;9.63;3.80;;;;;;;10.61;76.60;99247.17;2192611;81;27593;-64
2020/12/24 05:48:34;;;;;;;7.53;3.35;;;;;;;10.58;76.68;99248.70;2193070;81;28825;-64
2020/12/24 05:51:39;;;;;;;3.70;2.40;;;;;;;10.59;76.70;99255.78;2192579;80;31152;-64
2020/12/24 05:54:41;;;;;;;3.52;2.22;;;;;;;10.58;76.70;99255.41;2192959;81;33972;-64
2020/12/24 05:57:44;;;;;;;4.53;2.40;;;;;;;10.60;76.81;99249.94;2192529;81;29230;-65
2020/12/24 06:00:46;;;;;;;8.45;3.55;;;;;;;10.61;76.82;99254.33;2193005;81;27681;-64
2020/12/24 06:04:07;;;;;;;16.20;7.12;;;;;;;10.62;76.90;99254.71;2192589;81;28822;-65
2020/12/24 06:07:21;;;;;;;8.53;4.92;;;;;;;10.64;76.89;99256.34;2192902;81;31116;-64
2020/12/24 06:10:28;;;;;;;5.70;3.42;;;;;;;10.63;76.88;99250.61;2192537;81;33116;-65
2020/12/24 06:13:38;;;;;;;5.55;3.22;;;;;;;10.61;76.86;99239.14;2166007;81;30119;-64
2020/12/24 06:16:44;;;;;;;10.65;5.70;;;;;;;10.59;76.86;99238.37;2189037;81;27679;-65
2020/12/24 06:19:47;;;;;;;13.10;6.78;;;;;;;10.55;76.82;99236.02;2188808;80;29769;-65
2020/12/24 06:22:49;;;;;;;10.88;5.95;;;;;;;10.54;76.86;99231.62;2172095;81;32027;-65
2020/12/24 06:25:53;;;;;;;9.40;6.05;;;;;;;10.55;76.80;99222.63;2172037;81;34025;-65
2020/12/24 06:29:00;;;;;;;6.25;4.22;;;;;;;10.55;76.86;99223.97;2172194;80;29161;-65
2020/12/24 06:32:04;;;;;;;5.87;3.33;;;;;;;10.55;76.88;99219.45;2171173;81;27597;-65
2020/12/24 06:35:07;;;;;;;6.22;3.65;;;;;;;10.56;76.90;99222.51;2172121;80;29789;-65
2020/12/24 06:41:29;;;;;;;4.05;2.62;;;;;;;10.58;76.78;99188.95;2252072;77;32227;-65
2020/12/24 06:44:47;;;;;;;8.43;4.70;;;;;;;10.52;76.72;99182.66;2187573;80;27741;-65
2020/12/24 06:48:19;;;;;;;9.58;5.37;;;;;;;10.48;76.75;99183.35;2217486;80;28739;-65
2020/12/24 06:51:22;;;;;;;12.78;5.87;;;;;;;10.45;76.73;99187.57;2215837;80;31064;-66
2020/12/24 06:54:27;;;;;;;13.05;6.50;;;;;;;10.44;76.75;99188.53;2217621;80;33130;-65
2020/12/24 06:57:34;;;;;;;8.58;5.17;;;;;;;10.45;76.77;99186.23;2217630;80;28566;-66
2020/12/24 07:00:37;;;;;;;6.97;3.90;;;;;;;10.46;76.81;99187.95;2217336;80;27651;-65
2020/12/24 07:03:39;;;;;;;7.67;3.72;;;;;;;10.47;76.77;99203.05;2217411;80;28865;-65
2020/12/24 07:06:49;;;;;;;6.12;4.05;;;;;;;10.48;76.73;99206.95;2217400;80;32027;-65
2020/12/24 07:09:52;;;;;;;9.80;4.00;;;;;;;10.48;76.65;99204.28;2217358;80;34039;-65
2020/12/24 07:12:54;;;;;;;4.12;2.85;;;;;;;10.48;76.58;99210.13;2217643;80;29884;-64
2020/12/24 07:15:56;;;;;;;3.20;2.52;;;;;;;10.48;76.52;99210.97;2217621;80;27680;-65
2020/12/24 07:18:59;;;;;;;5.28;2.33;;;;;;;10.48;76.52;99206.11;2217507;80;29783;-65
2020/12/24 07:22:09;;;;;;;6.83;3.33;;;;;;;10.48;76.58;99205.62;2186946;80;31108;-65
2020/12/24 07:25:11;;;;;;;7.78;2.85;;;;;;;10.50;76.46;99201.52;2217523;80;33105;-65
2020/12/24 07:28:15;;;;;;;8.00;4.22;;;;;;;10.54;76.37;99188.77;2217521;80;28851;-65
2020/12/24 07:31:17;;;;;;;6.40;4.10;;;;;;;10.57;76.30;99184.55;2217633;80;28137;-65
2020/12/24 07:34:26;;;;;;;6.70;3.05;;;;;;;10.59;76.28;99171.92;2217500;80;28914;-65
2020/12/24 07:37:29;;;;;;;3.65;2.62;;;;;;;10.60;76.28;99175.81;2217259;80;31203;-65
2020/12/24 07:40:32;;;;;;;7.80;3.52;;;;;;;10.62;76.21;99178.37;2221806;80;33977;-65
2020/12/24 07:43:34;;;;;;;11.05;5.45;;;;;;;10.64;76.15;99193.41;2224740;80;28844;-66
2020/12/24 07:46:37;;;;;;;8.20;4.62;;;;;;;10.67;76.09;99195.00;2224788;80;27691;-66
2020/12/24 07:49:50;;;;;;;6.65;3.83;;;;;;;10.70;76.06;99192.59;2224760;80;28815;-66
2020/12/24 07:52:53;;;;;;;5.22;3.40;;;;;;;10.69;75.92;99179.69;2224015;80;31124;-65
2020/12/24 07:56:05;;;;;;;4.08;2.87;;;;;;;10.70;75.88;99173.38;2223975;80;33181;-66
2020/12/24 07:59:08;;;;;;;4.35;2.75;;;;;;;10.73;75.96;99181.20;2223530;80;28858;-65
2020/12/24 08:02:11;;;;;;;4.97;3.00;;;;;;;10.77;75.75;99175.98;2224050;80;27879;-65
2020/12/24 08:05:15;;;;;;;5.45;2.45;;;;;;;10.81;75.74;99199.43;2224105;80;28815;-65
2020/12/24 08:08:22;;;;;;;3.22;1.92;;;;;;;10.84;75.71;99205.05;2196040;80;31140;-65
2020/12/24 08:11:26;;;;;;;3.95;2.33;;;;;;;10.85;75.60;99195.55;2223991;80;33100;-65
2020/12/24 08:14:30;;;;;;;4.92;3.15;;;;;;;10.88;75.43;99193.16;2224046;80;29302;-65
2020/12/24 08:17:38;;;;;;;5.70;2.98;;;;;;;10.91;75.54;99179.56;2224269;80;27656;-66
2020/12/24 08:20:57;;;;;;;12.00;2.50;;;;;;;10.92;75.27;99188.83;2224020;80;28877;-66
2020/12/24 08:24:04;;;;;;;2.83;1.70;;;;;;;10.96;75.11;99192.64;2223998;80;32093;-64
2020/12/24 08:27:07;;;;;;;3.30;1.80;;;;;;;10.96;75.05;99178.74;2223971;80;33109;-65
2020/12/24 08:30:09;;;;;;;4.62;2.25;;;;;;;10.97;74.99;99188.50;2224165;80;29749;-65
2020/12/24 08:33:15;;;;;;;4.20;2.25;;;;;;;10.99;74.98;99183.05;2224217;80;27498;-65
2020/12/24 08:36:47;;;;;;;5.70;2.47;;;;;;;11.02;74.87;99189.51;2222933;80;28772;-66
2020/12/24 08:39:50;;;;;;;6.05;2.80;;;;;;;11.06;74.92;99195.91;1997918;88;31611;-65
2020/12/24 08:42:57;;;;;;;4.17;2.98;;;;;;;11.09;74.82;99191.66;1998027;89;33136;-65
2020/12/24 08:45:59;;;;;;;8.60;3.85;;;;;;;11.12;74.54;99200.45;1998010;89;29811;-64
2020/12/24 08:49:25;;;;;;;5.00;3.75;;;;;;;11.13;74.49;99200.83;1998118;89;27816;-65
2020/12/24 08:52:34;;;;;;;6.78;3.67;;;;;;;11.12;74.38;99189.27;1998173;89;29878;-65
2020/12/24 08:55:37;;;;;;;26.82;15.18;;;;;;;11.11;74.18;99208.98;1997973;89;31389;-65
2020/12/24 08:58:53;;;;;;;4.28;2.98;;;;;;;11.09;74.10;99190.81;1998027;89;33978;-66
2020/12/24 09:05:11;;;;;;;6.35;2.10;;;;;;;11.08;73.83;99213.22;2342754;76;32378;-64
2020/12/24 09:08:26;;;;;;;3.40;1.82;;;;;;;11.02;73.56;99225.23;2306697;77;27696;-65
2020/12/24 09:11:30;;;;;;;3.30;2.10;;;;;;;11.04;73.61;99217.94;2306642;77;28809;-66
2020/12/24 09:14:33;;;;;;;8.37;4.83;;;;;;;11.03;73.49;99206.84;2306865;77;31141;-66
2020/12/24 09:17:36;;;;;;;39.20;22.20;;;;;;;11.05;73.51;99196.88;2306593;77;33108;-66
2020/12/24 09:20:39;;;;;;;69.22;44.45;;;;;;;11.08;73.43;99205.17;2306565;77;28734;-66
2020/12/24 09:23:42;;;;;;;42.03;24.82;;;;;;;11.10;73.25;99213.48;2306563;77;27631;-65
2020/12/24 09:26:48;;;;;;;26.57;17.77;;;;;;;11.15;73.45;99213.64;2306548;77;28871;-66
2020/12/24 09:29:53;;;;;;;6.45;4.03;;;;;;;11.16;73.16;99212.22;2306598;77;32099;-65
2020/12/24 09:33:01;;;;;;;7.05;4.20;;;;;;;11.17;72.88;99212.56;2306713;77;33052;-65
2020/12/24 09:36:04;;;;;;;3.70;2.25;;;;;;;11.15;72.52;99203.80;2306575;77;28851;-65
2020/12/24 09:39:06;;;;;;;8.25;3.27;;;;;;;11.14;72.24;99203.42;2306580;77;27708;-65
2020/12/24 09:42:11;;;;;;;4.22;2.42;;;;;;;11.12;72.30;99216.07;2306563;77;28883;-65
2020/12/24 09:45:15;;;;;;;5.75;3.35;;;;;;;11.14;72.10;99203.89;2274429;77;31892;-64
2020/12/24 09:48:18;;;;;;;6.95;2.75;;;;;;;11.15;71.91;99190.86;2306687;77;34005;-65
2020/12/24 09:51:20;;;;;;;6.85;4.08;;;;;;;11.17;71.87;99162.13;2306501;77;29888;-65
2020/12/24 09:54:24;;;;;;;5.47;3.67;;;;;;;11.20;71.67;99156.06;2306622;77;27688;-65
2020/12/24 09:57:27;;;;;;;5.72;3.70;;;;;;;11.19;71.55;99185.17;2306400;77;28809;-64
2020/12/24 10:00:29;;;;;;;5.87;4.15;;;;;;;11.19;71.08;99182.98;2306505;77;32437;-66
2020/12/24 10:03:31;;;;;;;7.60;4.92;;;;;;;11.18;71.01;99190.16;2304007;77;33613;-65
2020/12/24 10:06:35;;;;;;;9.00;4.67;;;;;;;11.20;71.12;99182.86;2300271;77;28835;-65
2020/12/24 10:09:38;;;;;;;10.90;5.87;;;;;;;11.21;70.73;99179.72;2300156;77;27727;-66
2020/12/24 10:12:40;;;;;;;6.72;4.70;;;;;;;11.18;70.78;99168.71;2300089;77;28740;-66
2020/12/24 10:15:45;;;;;;;6.90;3.27;;;;;;;11.20;70.80;99179.34;2299630;77;32089;-65
2020/12/24 10:18:49;;;;;;;5.00;3.45;;;;;;;11.19;70.62;99169.59;2299470;77;36450;-66
2020/12/24 10:21:51;;;;;;;5.97;3.40;;;;;;;11.19;70.51;99175.78;2299510;77;29012;-65
2020/12/24 10:24:54;;;;;;;7.55;3.12;;;;;;;11.20;70.45;99165.94;2299398;77;27640;-65
2020/12/24 10:27:57;;;;;;;5.78;3.02;;;;;;;11.19;70.45;99158.86;2299344;77;28792;-64
2020/12/24 10:30:59;;;;;;;4.92;2.87;;;;;;;11.20;70.20;99162.76;2299343;77;32118;-65
2020/12/24 10:34:01;;;;;;;5.17;3.72;;;;;;;11.21;70.08;99156.94;2299404;77;33963;-65
2020/12/24 10:37:04;;;;;;;8.93;3.67;;;;;;;11.19;69.97;99151.66;2270955;77;28577;-65
2020/12/24 10:40:06;;;;;;;6.30;2.12;;;;;;;11.18;70.00;99151.78;2271267;77;27773;-64
2020/12/24 10:43:09;;;;;;;2.27;1.55;;;;;;;11.18;69.96;99143.24;2299269;77;28796;-64
2020/12/24 10:46:21;;;;;;;2.37;1.60;;;;;;;11.19;70.04;99150.81;2299330;77;32010;-65
2020/12/24 10:49:27;;;;;;;4.03;1.87;;;;;;;11.20;69.96;99155.22;2270612;77;34202;-64
2020/12/24 10:52:29;;;;;;;2.42;1.60;;;;;;;11.21;69.72;99148.39;2299439;77;28890;-64
2020/12/24 10:56:28;;;;;;;4.45;2.27;;;;;;;11.19;69.35;99148.98;2299471;77;27669;-65
2020/12/24 10:59:33;;;;;;;4.90;2.37;;;;;;;11.16;69.12;99155.05;2299294;77;29772;-65
2020/12/24 11:02:35;;;;;;;4.45;2.27;;;;;;;11.11;69.15;99155.38;2299231;77;31087;-65
2020/12/24 11:05:37;;;;;;;8.10;3.37;;;;;;;11.08;69.16;99153.78;2305289;76;32237;-65
2020/12/24 11:08:40;;;;;;;7.40;2.60;;;;;;;11.06;68.98;99152.16;2305672;77;28851;-64
2020/12/24 11:11:42;;;;;;;5.30;2.62;;;;;;;11.03;69.11;99134.95;2305722;77;27719;-65
2020/12/24 11:14:45;;;;;;;4.97;2.20;;;;;;;11.02;69.14;99138.59;2305548;77;29760;-66
2020/12/24 11:17:47;;;;;;;4.55;2.33;;;;;;;11.01;69.25;99136.88;2305608;77;31112;-66
2020/12/24 11:20:50;;;;;;;4.28;2.17;;;;;;;10.97;69.29;99138.92;2305563;77;33117;-65
2020/12/24 11:23:53;;;;;;;4.00;2.00;;;;;;;10.97;68.94;99138.08;2305618;77;28584;-66
2020/12/24 11:26:55;;;;;;;4.40;1.85;;;;;;;10.95;69.32;99142.19;2305786;77;28156;-65
2020/12/24 11:29:57;;;;;;;4.42;2.62;;;;;;;10.97;68.93;99130.04;2305617;77;29720;-64
2020/12/24 11:33:00;;;;;;;11.10;7.78;;;;;;;10.97;69.10;99132.72;2305706;77;31113;-64
2020/12/24 11:36:04;;;;;;;10.38;5.28;;;;;;;10.93;68.59;99129.38;2305600;77;33039;-65
2020/12/24 11:39:07;;;;;;;5.00;2.92;;;;;;;10.91;68.87;99108.06;2305980;77;28835;-64
2020/12/24 11:42:12;;;;;;;8.70;3.72;;;;;;;10.90;68.48;99101.48;2305851;77;27628;-65
2020/12/24 11:45:14;;;;;;;4.75;2.80;;;;;;;10.88;68.61;99093.53;2305604;77;28799;-65
2020/12/24 11:48:16;;;;;;;7.67;4.10;;;;;;;10.92;68.46;99104.42;2305588;77;31189;-65
2020/12/24 11:51:20;;;;;;;7.50;3.25;;;;;;;11.03;68.24;99095.63;2305573;77;32862;-65
2020/12/24 11:54:22;;;;;;;10.53;3.40;;;;;;;11.17;68.09;99091.09;2305473;77;28844;-66
2020/12/24 11:57:25;;;;;;;6.92;4.20;;;;;;;11.24;67.77;99080.31;2305581;77;27647;-65
2020/12/24 12:00:28;;;;;;;9.05;4.25;;;;;;;11.28;67.65;99075.58;2305648;77;28755;-66
2020/12/24 12:03:31;;;;;;;5.35;2.33;;;;;;;11.24;66.84;99066.91;2304585;76;32033;-66
2020/12/24 12:06:33;;;;;;;5.62;2.02;;;;;;;11.18;66.20;99066.00;2299224;77;34116;-66
2020/12/24 12:09:35;;;;;;;6.22;4.83;;;;;;;11.08;65.99;99064.47;2299373;77;28843;-66
2020/12/24 12:12:38;;;;;;;6.15;3.05;;;;;;;10.93;65.41;99072.64;2299329;77;27619;-64
2020/12/24 12:15:43;;;;;;;5.78;2.47;;;;;;;10.79;66.02;99072.27;2299235;77;29247;-64
2020/12/24 12:18:45;;;;;;;7.23;3.50;;;;;;;10.70;65.86;99083.64;2299374;77;31177;-66
2020/12/24 12:21:47;;;;;;;5.65;3.40;;;;;;;10.61;66.05;99079.78;2299309;77;32265;-66
2020/12/24 12:24:50;;;;;;;5.40;2.35;;;;;;;10.57;65.90;99081.45;2299248;77;28906;-65
2020/12/24 12:27:54;;;;;;;4.30;2.02;;;;;;;10.52;66.03;99076.88;2299418;77;27613;-65
2020/12/24 12:30:57;;;;;;;5.20;2.77;;;;;;;10.49;65.32;99071.27;2299336;77;28871;-66
2020/12/24 12:34:01;;;;;;;11.68;3.58;;;;;;;10.46;65.53;99068.80;2299191;77;31117;-65
2020/12/24 12:37:03;;;;;;;7.83;3.00;;;;;;;10.42;65.15;99057.45;2299436;77;33150;-65
2020/12/24 12:40:08;;;;;;;8.30;3.55;;;;;;;10.42;65.39;99060.59;2299180;77;29684;-65
2020/12/24 12:43:10;;;;;;;;;;;;;;;10.45;65.61;99063.91;2302237;77;27672;-64
2020/12/24 12:46:23;;;;;;;6.17;3.42;;;;;;;10.50;65.60;99052.91;2299433;77;29611;-64
2020/12/24 12:49:26;;;;;;;8.03;3.42;;;;;;;10.54;65.89;99058.89;2299302;77;31989;-66
2020/12/24 12:52:30;;;;;;;7.40;3.27;;;;;;;10.60;66.04;99051.75;2299348;77;33119;-65
2020/12/24 12:55:32;;;;;;;11.05;4.65;;;;;;;10.61;65.98;99054.34;2299484;77;28932;-64
2020/12/24 12:58:36;;;;;;;13.60;5.15;;;;;;;10.60;65.94;99055.30;2299379;77;27681;-64
2020/12/24 13:01:38;;;;;;;12.47;5.55;;;;;;;10.63;65.82;99047.06;2299408;77;29761;-64
2020/12/24 13:04:41;;;;;;;7.75;4.90;;;;;;;10.67;65.83;99041.49;2299137;76;31547;-66
2020/12/24 13:07:43;;;;;;;8.00;3.25;;;;;;;10.73;65.88;99053.09;2299317;77;33127;-65
2020/12/24 13:10:46;;;;;;;8.38;4.85;;;;;;;10.75;65.57;99045.81;2299276;77;29577;-66
2020/12/24 13:13:49;;;;;;;7.33;4.45;;;;;;;10.76;65.13;99043.50;2299443;77;27751;-66
2020/12/24 13:16:53;;;;;;;14.15;8.63;;;;;;;10.75;64.96;99055.19;2299233;77;29877;-66
2020/12/24 13:19:55;;;;;;;9.70;5.65;;;;;;;10.77;65.28;99048.74;2299321;77;32020;-65
2020/12/24 13:22:58;;;;;;;11.25;6.55;;;;;;;10.81;64.97;99056.10;2299153;77;34143;-64
2020/12/24 13:26:00;;;;;;;11.00;4.40;;;;;;;10.83;64.82;99043.92;2299273;77;28909;-66
2020/12/24 13:29:03;;;;;;;7.45;3.55;;;;;;;10.77;64.19;99040.70;2299336;77;27648;-66
2020/12/24 13:32:06;;;;;;;7.65;3.35;;;;;;;10.74;64.33;99035.59;2299058;77;28983;-65
2020/12/24 13:35:10;;;;;;;9.13;3.62;;;;;;;10.70;64.33;99029.20;2299060;77;31158;-66
2020/12/24 13:38:12;;;;;;;8.13;3.98;;;;;;;10.67;64.36;99029.44;2299032;77;32949;-63
2020/12/24 13:41:15;;;;;;;10.98;4.45;;;;;;;10.58;64.61;99018.89;2299115;77;28234;-64
2020/12/24 13:44:20;;;;;;;10.15;4.40;;;;;;;10.54;64.67;99028.09;2299356;77;27513;-64
2020/12/24 13:47:22;;;;;;;6.47;3.62;;;;;;;10.47;64.49;99029.86;2299378;77;28847;-65
2020/12/24 13:50:25;;;;;;;8.55;4.17;;;;;;;10.40;64.64;99029.92;2299280;77;31172;-64
2020/12/24 13:53:27;;;;;;;9.20;4.53;;;;;;;10.34;64.80;99023.12;2299523;77;33091;-64
2020/12/24 13:56:30;;;;;;;12.88;4.80;;;;;;;10.30;64.77;99022.11;2299533;77;28175;-65
2020/12/24 13:59:32;;;;;;;11.70;5.80;;;;;;;10.25;64.79;99025.11;2299537;77;27732;-64
2020/12/24 14:02:34;;;;;;;11.80;5.45;;;;;;;10.21;64.98;99030.28;2299526;77;28816;-66
2020/12/24 14:05:37;;;;;;;11.63;5.85;;;;;;;10.19;65.12;99029.07;2299291;76;31126;-65
2020/12/24 14:08:40;;;;;;;10.75;5.12;;;;;;;10.17;65.16;99036.34;2271279;77;33007;-65
2020/12/24 14:11:43;;;;;;;9.23;4.92;;;;;;;10.15;65.14;99032.91;2299366;77;30104;-65
2020/12/24 14:14:45;;;;;;;10.35;5.05;;;;;;;10.13;65.23;99031.31;2299481;77;27689;-64
2020/12/24 14:17:47;;;;;;;13.05;6.65;;;;;;;10.12;65.03;99026.92;2299331;77;29760;-65
2020/12/24 14:20:50;;;;;;;13.10;7.20;;;;;;;10.12;65.24;99029.09;2299348;77;31244;-65
2020/12/24 14:23:52;;;;;;;20.15;12.20;;;;;;;10.15;65.11;99036.92;2299380;77;34014;-65
2020/12/24 14:26:57;;;;;;;14.43;7.90;;;;;;;10.16;65.14;99035.13;2299414;77;30113;-65